Time;durP1;ratioP1;P1;durP2;ratioP2;P2;SDS_P1;SDS_P2;PMS_P1;PMS_P2;Temp;Humidity;BMP_temperature;BMP_pressure;BME280_temperature;BME280_humidity;BME280_pressure;Samples;Min_cycle;Max_cycle;Signal;HPM_P1;HPM_P2
2023/04/06 00:00:45;;;;;;;19.70;12.63;;;;;;;3.73;64.78;101759.84;5043577;28;20026;-82
2023/04/06 00:03:10;;;;;;;19.52;12.00;;;;;;;3.72;63.13;101759.91;5054654;28;20033;-82
2023/04/06 00:05:35;;;;;;;17.45;11.85;;;;;;;3.70;64.89;101752.91;5047446;28;20053;-82
2023/04/06 00:08:01;;;;;;;20.27;11.85;;;;;;;3.71;64.95;101751.13;5055316;28;20049;-82
2023/04/06 00:10:26;;;;;;;17.35;12.32;;;;;;;3.67;65.70;101749.53;5055003;28;20029;-81
2023/04/06 00:12:52;;;;;;;17.75;12.00;;;;;;;3.66;65.06;101746.06;5045606;28;20038;-81
2023/04/06 00:15:17;;;;;;;18.25;12.60;;;;;;;3.66;65.88;101742.56;5051185;28;20022;-82
2023/04/06 00:17:43;;;;;;;18.67;12.18;;;;;;;3.64;65.60;101744.38;5043894;28;20053;-82
2023/04/06 00:20:08;;;;;;;17.42;10.88;;;;;;;3.63;62.44;101743.53;5042578;28;20021;-82
2023/04/06 00:22:34;;;;;;;15.95;9.98;;;;;;;3.60;62.28;101738.38;5035449;28;20033;-82
2023/04/06 00:24:59;;;;;;;14.98;9.93;;;;;;;3.62;61.01;101735.69;5040584;28;20068;-82
2023/04/06 00:27:25;;;;;;;15.48;10.48;;;;;;;3.61;60.92;101737.44;5043030;28;20029;-82
2023/04/06 00:29:50;;;;;;;14.15;10.18;;;;;;;3.62;60.46;101735.69;5039655;28;20530;-82
2023/04/06 00:32:15;;;;;;;14.48;10.02;;;;;;;3.60;60.25;101727.00;5035789;28;20037;-82
2023/04/06 00:34:41;;;;;;;13.27;9.60;;;;;;;3.63;59.92;101726.88;5032642;28;20028;-82
2023/04/06 00:37:06;;;;;;;14.95;9.55;;;;;;;3.65;60.02;101719.84;5040947;28;20116;-82
2023/04/06 00:39:31;;;;;;;15.32;10.25;;;;;;;3.65;59.79;101712.81;5040105;28;20021;-82
2023/04/06 00:41:57;;;;;;;14.02;10.32;;;;;;;3.65;59.92;101725.94;5042343;28;20379;-82
2023/04/06 00:44:24;;;;;;;16.65;9.75;;;;;;;3.65;60.22;101719.84;5042297;28;20033;-82
2023/04/06 00:46:50;;;;;;;15.55;9.90;;;;;;;3.65;60.11;101720.69;5028408;28;20017;-82
2023/04/06 00:49:15;;;;;;;15.52;10.43;;;;;;;3.65;59.86;101714.59;5042128;28;20030;-82
2023/04/06 00:51:40;;;;;;;15.65;10.05;;;;;;;3.65;59.95;101711.94;5038462;28;20037;-82
2023/04/06 00:54:06;;;;;;;15.82;10.75;;;;;;;3.63;60.07;101705.88;5040497;28;20429;-82
2023/04/06 00:56:31;;;;;;;15.30;10.63;;;;;;;3.61;59.98;101698.03;5041783;28;20080;-82
2023/04/06 00:58:57;;;;;;;15.63;10.30;;;;;;;3.63;60.16;101708.50;5029469;28;20029;-82
2023/04/06 01:01:23;;;;;;;16.73;10.63;;;;;;;3.65;59.76;101702.28;5041665;28;20034;-82
2023/04/06 01:03:49;;;;;;;16.38;11.25;;;;;;;3.65;59.81;101704.06;5033252;28;20081;-82
2023/04/06 01:06:15;;;;;;;16.35;11.00;;;;;;;3.65;60.10;101701.44;5041157;28;20032;-82
2023/04/06 01:08:41;;;;;;;16.13;11.15;;;;;;;3.66;59.51;101695.25;5040585;28;20104;-82
2023/04/06 01:11:06;;;;;;;16.77;11.13;;;;;;;3.65;59.64;101691.78;5046761;28;20029;-82
2023/04/06 01:13:32;;;;;;;17.50;11.63;;;;;;;3.64;60.02;101686.59;5048143;28;20061;-82
2023/04/06 01:15:57;;;;;;;15.68;11.35;;;;;;;3.64;60.22;101686.59;5055461;28;20025;-82
2023/04/06 01:18:27;;;;;;;18.38;11.73;;;;;;;3.64;60.43;101686.59;5057055;28;20029;-82
2023/04/06 01:20:53;;;;;;;16.25;11.38;;;;;;;3.63;60.93;101687.47;5043293;28;20060;-82
2023/04/06 01:23:18;;;;;;;17.17;12.18;;;;;;;3.62;60.78;101688.41;5035776;28;20026;-82
2023/04/06 01:25:43;;;;;;;19.30;11.30;;;;;;;3.61;60.74;101684.91;5040555;28;20037;-82
2023/04/06 01:28:09;;;;;;;22.02;11.90;;;;;;;3.61;60.82;101681.44;5037816;28;20033;-81
2023/04/06 01:30:34;;;;;;;18.63;12.32;;;;;;;3.59;61.20;101683.25;5036753;28;20116;-82
2023/04/06 01:33:00;;;;;;;18.42;12.55;;;;;;;3.58;61.23;101690.28;5037600;28;20037;-82
2023/04/06 01:35:27;;;;;;;19.58;12.63;;;;;;;3.52;61.52;101675.56;5037222;28;20494;-82
2023/04/06 01:37:52;;;;;;;17.55;12.60;;;;;;;3.54;61.65;101677.31;5031021;28;20118;-81
2023/04/06 01:40:17;;;;;;;22.58;13.30;;;;;;;3.52;61.64;101674.72;5035919;28;20061;-82
2023/04/06 01:42:43;;;;;;;21.90;12.30;;;;;;;3.52;61.86;101672.94;5035002;28;20033;-82
2023/04/06 01:45:09;;;;;;;21.45;13.10;;;;;;;3.52;61.94;101664.22;5036565;28;20025;-82
2023/04/06 01:47:34;;;;;;;19.45;12.02;;;;;;;3.50;62.27;101664.25;5054220;28;20036;-82
2023/04/06 01:49:59;;;;;;;24.70;12.88;;;;;;;3.50;62.33;101661.63;5039034;28;20018;-82
2023/04/06 01:52:25;;;;;;;18.40;13.68;;;;;;;3.50;62.46;101663.41;5037565;28;20056;-82
2023/04/06 01:54:50;;;;;;;19.38;12.88;;;;;;;3.50;62.55;101660.78;5037892;28;20029;-82
2023/04/06 01:57:16;;;;;;;21.38;13.02;;;;;;;3.52;62.72;101651.09;5039971;28;20429;-82
2023/04/06 01:59:41;;;;;;;18.75;13.18;;;;;;;3.49;62.73;101652.03;5039347;28;20025;-82
2023/04/06 02:02:06;;;;;;;21.10;13.50;;;;;;;3.51;62.94;101641.47;5036718;28;20090;-82
2023/04/06 02:04:31;;;;;;;19.25;14.10;;;;;;;3.50;63.11;101639.78;5034599;28;20026;-82
2023/04/06 02:06:57;;;;;;;20.45;14.27;;;;;;;3.51;63.43;101644.09;5038937;28;20378;-82
2023/04/06 02:09:22;;;;;;;20.45;13.25;;;;;;;3.52;63.22;101638.81;5026724;28;20030;-82
2023/04/06 02:11:47;;;;;;;22.05;13.45;;;;;;;3.54;63.49;101637.91;5038653;28;20439;-82
2023/04/06 02:14:12;;;;;;;20.83;13.50;;;;;;;3.53;63.50;101631.81;5024704;28;20025;-82
2023/04/06 02:16:38;;;;;;;18.98;13.52;;;;;;;3.55;63.66;101634.34;5027671;28;20372;-82
2023/04/06 02:19:03;;;;;;;19.25;14.18;;;;;;;3.55;63.62;101629.97;5027838;28;20081;-82
2023/04/06 02:21:28;;;;;;;23.15;14.40;;;;;;;3.57;63.75;101629.91;5034762;28;20032;-82
2023/04/06 02:23:54;;;;;;;24.13;14.40;;;;;;;3.58;63.75;101632.50;5032467;28;20032;-82
2023/04/06 02:26:20;;;;;;;23.35;14.57;;;;;;;3.60;64.12;101630.66;5034718;28;20021;-82
2023/04/06 02:28:45;;;;;;;20.48;14.55;;;;;;;3.61;64.28;101628.88;5026909;28;20038;-82
2023/04/06 02:31:11;;;;;;;21.83;14.40;;;;;;;3.61;63.98;101624.47;5035171;28;20032;-82
2023/04/06 02:33:36;;;;;;;21.48;14.45;;;;;;;3.62;64.14;101615.69;5034713;28;20491;-81
2023/04/06 02:36:01;;;;;;;23.13;15.52;;;;;;;3.62;64.00;101615.69;5033793;28;20026;-82
2023/04/06 02:38:26;;;;;;;21.52;14.43;;;;;;;3.62;64.37;101620.97;5028883;28;20041;-81
2023/04/06 02:40:52;;;;;;;25.25;14.75;;;;;;;3.62;64.16;101606.97;5033093;28;20022;-82
2023/04/06 02:43:18;;;;;;;23.38;15.90;;;;;;;3.62;64.50;101610.44;5034403;28;20108;-82
2023/04/06 02:45:43;;;;;;;25.20;15.68;;;;;;;3.63;64.58;101608.66;5027528;28;20037;-82
2023/04/06 02:48:09;;;;;;;24.25;15.77;;;;;;;3.66;64.33;101603.31;5027870;28;20025;-81
2023/04/06 02:50:34;;;;;;;23.95;15.15;;;;;;;3.66;64.48;101598.94;5033741;28;20040;-81
2023/04/06 02:52:59;;;;;;;21.83;15.32;;;;;;;3.67;64.45;101602.41;5033721;28;20471;-82
2023/04/06 02:55:25;;;;;;;22.73;16.08;;;;;;;3.66;64.18;101593.69;5035548;28;20046;-82
2023/04/06 02:57:50;;;;;;;22.52;16.15;;;;;;;3.66;64.41;101593.69;5035470;28;20033;-82
2023/04/06 03:00:15;;;;;;;24.70;16.77;;;;;;;3.69;64.41;101592.69;5034826;28;20025;-82
2023/04/06 03:02:41;;;;;;;25.60;16.08;;;;;;;3.70;64.35;101591.81;5036772;28;20034;-82
2023/04/06 03:05:06;;;;;;;23.75;16.98;;;;;;;3.69;64.41;101592.69;5031687;28;20026;-82
2023/04/06 03:07:32;;;;;;;25.17;16.05;;;;;;;3.70;64.71;101586.53;5037824;28;20060;-82
2023/04/06 03:09:57;;;;;;;25.63;16.73;;;;;;;3.70;64.67;101581.28;5031860;28;20021;-82
2023/04/06 03:12:22;;;;;;;23.58;16.83;;;;;;;3.72;64.38;101584.72;5039808;28;20021;-82
2023/04/06 03:14:47;;;;;;;22.77;16.67;;;;;;;3.73;64.48;101582.94;5040392;28;20038;-82
2023/04/06 03:17:13;;;;;;;22.27;16.25;;;;;;;3.72;64.38;101579.47;5046540;28;20692;-82
2023/04/06 03:19:38;;;;;;;24.45;16.85;;;;;;;3.72;64.63;101582.09;5042869;28;20033;-82
2023/04/06 03:22:03;;;;;;;24.60;16.10;;;;;;;3.73;64.35;101575.06;5040790;28;20036;-82
2023/04/06 03:24:29;;;;;;;26.08;16.65;;;;;;;3.73;64.64;101569.78;5039974;28;20049;-82
2023/04/06 03:26:54;;;;;;;23.05;16.67;;;;;;;3.74;64.37;101577.63;5042380;28;20029;-82
2023/04/06 03:29:20;;;;;;;23.33;16.85;;;;;;;3.75;64.08;101568.84;5042866;28;20068;-82
2023/04/06 03:31:45;;;;;;;24.40;16.83;;;;;;;3.74;64.39;101564.50;5038905;28;20029;-82
2023/04/06 03:34:10;;;;;;;25.42;16.17;;;;;;;3.74;64.18;101567.13;5041869;28;20029;-82
2023/04/06 03:36:35;;;;;;;22.85;16.50;;;;;;;3.76;64.41;101559.19;5041281;28;20029;-82
2023/04/06 03:39:01;;;;;;;23.92;17.23;;;;;;;3.76;64.40;101562.66;5043631;28;20376;-82
2023/04/06 03:41:26;;;;;;;24.27;16.92;;;;;;;3.78;64.59;101563.47;5034872;28;20070;-82
2023/04/06 03:43:52;;;;;;;23.02;16.35;;;;;;;3.78;64.43;101557.34;5042727;28;20382;-82
2023/04/06 03:46:17;;;;;;;26.73;17.70;;;;;;;3.79;64.21;101559.06;5042268;28;20021;-82
2023/04/06 03:48:42;;;;;;;25.88;17.02;;;;;;;3.79;63.94;101561.69;5040720;28;20021;-82
2023/04/06 03:51:08;;;;;;;30.13;16.73;;;;;;;3.79;64.33;101565.19;5041811;28;20029;-82
2023/04/06 03:53:33;;;;;;;23.02;16.27;;;;;;;3.80;64.74;101566.06;5037669;28;20038;-82
2023/04/06 03:55:58;;;;;;;26.95;17.40;;;;;;;3.77;64.21;101559.13;5031754;28;20026;-82
2023/04/06 03:58:24;;;;;;;25.85;17.15;;;;;;;3.78;64.57;101563.47;5039256;28;20509;-82
2023/04/06 04:00:49;;;;;;;23.67;17.27;;;;;;;3.78;64.53;101557.34;5042881;28;20030;-82
2023/04/06 04:03:14;;;;;;;23.30;17.05;;;;;;;3.77;64.27;101561.75;5032438;28;20040;-82
2023/04/06 04:05:40;;;;;;;25.95;16.83;;;;;;;3.77;64.39;101559.13;5038604;28;20497;-82
2023/04/06 04:08:05;;;;;;;26.15;17.33;;;;;;;3.76;64.21;101561.81;5041575;28;20028;-82
2023/04/06 04:10:31;;;;;;;25.13;17.35;;;;;;;3.74;64.55;101553.97;5039715;28;20064;-82
2023/04/06 04:12:59;;;;;;;24.10;16.98;;;;;;;3.74;64.38;101555.75;5036995;28;20025;-82
2023/04/06 04:15:24;;;;;;;22.67;16.70;;;;;;;3.71;64.21;101559.34;5042181;28;20491;-82
2023/04/06 04:17:50;;;;;;;24.52;16.73;;;;;;;3.69;64.44;101553.28;5038732;28;20064;-82
2023/04/06 04:20:16;;;;;;;24.70;16.80;;;;;;;3.69;64.59;101558.53;5043507;28;20021;-81
2023/04/06 04:22:41;;;;;;;25.50;17.60;;;;;;;3.68;64.66;101557.69;5041132;28;20022;-81
2023/04/06 04:25:07;;;;;;;26.05;17.08;;;;;;;3.66;64.38;101559.53;5045460;28;20022;-81
2023/04/06 04:27:32;;;;;;;22.38;16.63;;;;;;;3.67;64.95;101560.38;5051623;28;20562;-81
2023/04/06 04:29:58;;;;;;;27.48;17.48;;;;;;;3.65;64.50;101555.19;5045337;28;20025;-81
2023/04/06 04:32:27;;;;;;;24.70;17.38;;;;;;;3.64;64.64;101557.84;5032501;28;20068;-81
2023/04/06 04:34:52;;;;;;;25.57;18.07;;;;;;;3.63;64.54;101549.13;5042048;28;20394;-81
2023/04/06 04:37:18;;;;;;;28.13;17.17;;;;;;;3.62;64.94;101557.91;5042349;28;20310;-81
2023/04/06 04:39:43;;;;;;;27.13;17.70;;;;;;;3.62;64.67;101552.66;5042030;28;20085;-82
2023/04/06 04:42:08;;;;;;;24.20;16.38;;;;;;;3.64;64.70;101552.59;5030842;28;20368;-82
2023/04/06 04:44:33;;;;;;;28.05;17.20;;;;;;;3.65;64.63;101552.56;5041002;28;20033;-82
2023/04/06 04:46:59;;;;;;;25.33;18.15;;;;;;;3.63;64.74;101546.50;5041384;28;20033;-82
2023/04/06 04:49:24;;;;;;;22.35;16.17;;;;;;;3.64;65.32;101547.34;5039457;28;20040;-82
2023/04/06 04:51:52;;;;;;;24.35;17.05;;;;;;;3.65;64.98;101546.44;5037237;28;20018;-82
2023/04/06 04:54:17;;;;;;;23.65;17.23;;;;;;;3.66;64.90;101546.41;5041233;28;20028;-82
2023/04/06 04:56:42;;;;;;;26.77;16.75;;;;;;;3.68;64.58;101541.06;5032379;28;20025;-83
2023/04/06 04:59:08;;;;;;;25.42;16.77;;;;;;;3.70;64.21;101534.84;5029021;28;20101;-82
2023/04/06 05:01:33;;;;;;;22.33;15.85;;;;;;;3.71;64.50;101540.94;5052241;28;20036;-82
2023/04/06 05:03:58;;;;;;;21.80;15.80;;;;;;;3.72;64.57;101534.78;5041418;28;20022;-82
2023/04/06 05:06:25;;;;;;;23.08;16.77;;;;;;;3.74;64.68;101535.59;5046606;28;20483;-82
2023/04/06 05:08:50;;;;;;;26.40;17.10;;;;;;;3.75;64.81;101542.56;5049893;28;20029;-81
2023/04/06 05:11:15;;;;;;;24.02;17.30;;;;;;;3.78;64.54;101545.09;5039737;28;20083;-82
2023/04/06 05:13:41;;;;;;;28.60;17.40;;;;;;;3.78;64.54;101537.22;5040403;28;20036;-82
2023/04/06 05:16:06;;;;;;;22.63;15.57;;;;;;;3.81;64.71;101537.06;5031179;28;20025;-82
2023/04/06 05:18:31;;;;;;;22.15;16.67;;;;;;;3.82;64.75;101536.16;5033585;28;20452;-82
2023/04/06 05:21:04;;;;;;;24.25;16.67;;;;;;;3.83;64.66;101532.63;5037441;28;20609;-82
2023/04/06 05:23:29;;;;;;;24.45;16.75;;;;;;;3.85;64.49;101541.31;5042994;28;20040;-81
2023/04/06 05:25:55;;;;;;;25.17;17.38;;;;;;;3.88;64.82;101546.44;5047666;28;20037;-81
2023/04/06 05:28:36;;;;;;;25.23;18.33;;;;;;;3.92;64.51;101543.72;5052048;28;20061;-81
2023/04/06 05:31:01;;;;;;;26.23;17.15;;;;;;;3.93;64.96;101533.16;5051252;28;20033;-81
2023/04/06 05:33:27;;;;;;;24.17;15.90;;;;;;;3.95;64.66;101544.44;5038738;28;20037;-81
2023/04/06 05:35:52;;;;;;;22.33;16.30;;;;;;;3.98;64.54;101544.34;5038824;28;20082;-82
2023/04/06 05:38:17;;;;;;;25.45;17.13;;;;;;;4.01;64.48;101540.72;5041427;28;20050;-82
2023/04/06 05:40:43;;;;;;;25.98;17.20;;;;;;;4.04;63.99;101540.63;5029304;28;20029;-82
2023/04/06 05:43:08;;;;;;;25.02;16.55;;;;;;;4.06;64.32;101537.03;5035920;28;20018;-83
2023/04/06 05:45:34;;;;;;;24.70;16.58;;;;;;;4.08;64.13;101535.19;5038045;28;20060;-81
2023/04/06 05:48:06;;;;;;;25.38;16.42;;;;;;;4.12;63.71;101540.31;5038871;28;20048;-81
2023/04/06 05:50:31;;;;;;;23.10;14.75;;;;;;;4.14;63.73;101533.22;5028202;28;20483;-81
2023/04/06 05:52:56;;;;;;;25.17;16.60;;;;;;;4.17;63.51;101541.84;5031223;28;20100;-81
2023/04/06 05:55:21;;;;;;;21.98;16.65;;;;;;;4.19;63.68;101534.75;5035742;28;20033;-82
2023/04/06 05:57:47;;;;;;;21.52;15.57;;;;;;;4.23;63.44;101535.50;5037102;28;20037;-81
2023/04/06 06:00:13;;;;;;;22.80;15.63;;;;;;;4.26;63.64;101532.75;5030836;28;20032;-81
2023/04/06 06:02:39;;;;;;;22.85;16.30;;;;;;;4.27;63.68;101529.22;5027602;28;20065;-82
2023/04/06 06:05:04;;;;;;;24.10;16.05;;;;;;;4.31;63.25;101551.81;5037573;28;20025;-82
2023/04/06 06:07:30;;;;;;;23.80;16.30;;;;;;;4.32;63.71;101544.81;5040150;28;20049;-81
2023/04/06 06:09:58;;;;;;;29.15;17.55;;;;;;;4.35;63.56;101544.69;5040172;28;20041;-81
2023/04/06 06:12:24;;;;;;;22.77;16.77;;;;;;;4.37;63.94;101550.75;5038603;28;20120;-81
2023/04/06 06:14:49;;;;;;;25.40;16.60;;;;;;;4.39;63.28;101541.88;5039983;28;20044;-82
2023/04/06 06:17:15;;;;;;;25.50;15.90;;;;;;;4.42;63.94;101540.91;5039806;28;20041;-82
2023/04/06 06:19:40;;;;;;;21.98;15.85;;;;;;;4.46;63.62;101545.09;5039596;28;20359;-82
2023/04/06 06:22:06;;;;;;;23.98;16.13;;;;;;;4.48;63.51;101543.28;5038873;28;20073;-82
2023/04/06 06:24:32;;;;;;;23.55;17.00;;;;;;;4.50;63.58;101541.44;5034073;28;20029;-82
2023/04/06 06:26:58;;;;;;;26.90;17.33;;;;;;;4.55;63.51;101544.75;5027684;28;20052;-81
2023/04/06 06:29:24;;;;;;;21.60;15.23;;;;;;;4.58;63.42;101544.63;5038248;28;20382;-81
2023/04/06 06:31:49;;;;;;;20.25;15.82;;;;;;;4.62;63.50;101546.22;5039609;28;20493;-81
2023/04/06 06:34:15;;;;;;;23.73;16.67;;;;;;;4.63;63.26;101542.66;5036330;28;20033;-82
2023/04/06 06:36:40;;;;;;;22.95;16.08;;;;;;;4.68;63.81;101538.97;5045513;28;20069;-82
2023/04/06 06:39:05;;;;;;;22.15;16.48;;;;;;;4.71;63.09;101544.13;5040456;28;20115;-82
2023/04/06 06:41:31;;;;;;;28.15;15.82;;;;;;;4.72;63.05;101540.59;5033754;28;20061;-82
2023/04/06 06:43:56;;;;;;;22.92;16.02;;;;;;;4.74;63.46;101542.22;5039881;28;20029;-82
2023/04/06 06:46:21;;;;;;;25.25;16.42;;;;;;;4.77;63.05;101546.50;5037651;28;20025;-82
2023/04/06 06:48:47;;;;;;;23.70;16.48;;;;;;;4.77;62.92;101528.94;5038450;28;20021;-82
2023/04/06 06:51:12;;;;;;;22.52;16.00;;;;;;;4.81;63.22;101535.81;5037666;28;20036;-82
2023/04/06 06:53:37;;;;;;;24.27;16.73;;;;;;;4.82;63.03;101531.38;5041048;28;20025;-82
2023/04/06 06:56:03;;;;;;;22.80;15.38;;;;;;;4.85;63.17;101540.94;5031585;28;20025;-82
2023/04/06 06:58:28;;;;;;;24.38;15.13;;;;;;;4.86;63.25;101535.59;5034605;28;20459;-82
2023/04/06 07:00:59;;;;;;;25.45;15.73;;;;;;;4.86;63.24;101535.59;5039877;28;20041;-82
2023/04/06 07:03:25;;;;;;;25.35;16.15;;;;;;;4.91;62.55;101538.03;5044190;28;20041;-82
2023/04/06 07:05:53;;;;;;;24.90;15.77;;;;;;;4.94;63.42;101540.53;5044703;28;20052;-82
2023/04/06 07:08:20;;;;;;;23.55;15.70;;;;;;;4.99;63.08;101535.94;5034122;28;20040;-81
2023/04/06 07:10:45;;;;;;;25.27;15.68;;;;;;;5.04;63.84;101531.34;5033426;28;20026;-81
2023/04/06 07:13:12;;;;;;;23.02;15.93;;;;;;;5.09;63.86;101536.41;5040550;28;20568;-82
2023/04/06 07:15:37;;;;;;;22.13;16.30;;;;;;;5.12;64.03;101538.91;5042092;28;20037;-81
2023/04/06 07:18:03;;;;;;;25.02;16.00;;;;;;;5.15;63.18;101529.09;5045941;28;20100;-81
2023/04/06 07:20:28;;;;;;;22.35;16.58;;;;;;;5.19;63.44;101535.94;5047060;28;20021;-81
2023/04/06 07:22:53;;;;;;;22.75;15.57;;;;;;;5.22;63.32;101534.97;5046459;28;20021;-82
2023/04/06 07:25:19;;;;;;;25.13;16.38;;;;;;;5.26;63.54;101531.28;5044106;28;20118;-82
2023/04/06 07:27:44;;;;;;;32.25;16.35;;;;;;;5.31;63.35;101534.59;5042475;28;20032;-83
2023/04/06 07:30:10;;;;;;;26.15;16.60;;;;;;;5.35;63.45;101528.25;5035871;28;20050;-81
2023/04/06 07:32:35;;;;;;;28.33;16.35;;;;;;;5.41;63.20;101523.63;5042551;28;20045;-82
2023/04/06 07:35:01;;;;;;;24.73;16.60;;;;;;;5.47;63.31;101529.47;5035048;28;20029;-82
2023/04/06 07:37:26;;;;;;;26.27;16.08;;;;;;;5.53;62.56;101518.69;5041569;28;20053;-82
2023/04/06 07:39:51;;;;;;;27.30;16.67;;;;;;;5.59;62.89;101532.50;5053926;28;20044;-82
2023/04/06 07:42:17;;;;;;;23.02;15.50;;;;;;;5.60;62.51;101528.94;5050785;28;20036;-82
2023/04/06 07:44:42;;;;;;;21.25;15.85;;;;;;;5.65;62.74;101522.53;5044347;28;20029;-82
2023/04/06 07:47:07;;;;;;;24.05;15.65;;;;;;;5.69;63.02;101524.09;5030475;28;20018;-82
2023/04/06 07:49:32;;;;;;;26.05;17.42;;;;;;;5.75;62.81;101526.47;5044171;28;20120;-82
2023/04/06 07:51:58;;;;;;;29.75;16.00;;;;;;;5.78;62.79;101520.22;5035371;28;20068;-82
2023/04/06 07:54:23;;;;;;;22.77;15.35;;;;;;;5.81;62.63;101522.72;5036344;28;20392;-82
2023/04/06 07:56:50;;;;;;;22.85;16.50;;;;;;;5.86;62.94;101527.75;5022545;28;20418;-83
2023/04/06 07:59:15;;;;;;;24.98;15.60;;;;;;;5.86;63.04;101526.00;5037465;28;20448;-82
2023/04/06 08:01:40;;;;;;;24.33;15.40;;;;;;;5.87;63.08;101530.31;5034721;28;20033;-82
2023/04/06 08:04:06;;;;;;;25.95;16.08;;;;;;;5.89;63.25;101525.81;5036083;28;20164;-82
2023/04/06 08:06:31;;;;;;;22.63;16.08;;;;;;;5.93;63.43;101530.03;5035732;28;20030;-82
2023/04/06 08:08:57;;;;;;;23.73;16.88;;;;;;;5.99;63.82;101526.28;5035999;28;20018;-82
2023/04/06 08:11:22;;;;;;;23.20;15.73;;;;;;;6.04;64.04;101526.94;5035838;28;20056;-82
2023/04/06 08:13:47;;;;;;;25.60;15.30;;;;;;;6.10;64.60;101518.75;5036238;28;20025;-82
2023/04/06 08:16:12;;;;;;;22.67;15.95;;;;;;;6.21;64.07;101525.28;5031033;28;20030;-83
2023/04/06 08:18:38;;;;;;;23.00;15.52;;;;;;;6.29;64.10;101531.06;5031067;28;20053;-83
2023/04/06 08:21:04;;;;;;;24.45;16.58;;;;;;;6.35;64.49;101522.84;5036013;28;20413;-83
2023/04/06 08:23:29;;;;;;;25.48;16.95;;;;;;;6.42;64.33;101526.06;5030411;28;20034;-83
2023/04/06 08:25:55;;;;;;;22.80;16.17;;;;;;;6.51;64.23;101522.09;5032355;28;20037;-83
2023/04/06 08:28:21;;;;;;;22.23;15.40;;;;;;;6.59;63.73;101530.50;5036279;28;20030;-83
2023/04/06 08:30:46;;;;;;;23.00;16.00;;;;;;;6.66;64.18;101529.25;5037350;28;20095;-83
2023/04/06 08:33:12;;;;;;;22.48;15.32;;;;;;;6.71;63.85;101529.03;5039459;28;20038;-83
2023/04/06 08:35:37;;;;;;;22.05;15.95;;;;;;;6.75;63.79;101523.53;5036470;28;20037;-83
2023/04/06 08:38:02;;;;;;;23.45;16.17;;;;;;;6.80;63.99;101537.38;5047868;28;20046;-83
2023/04/06 08:40:28;;;;;;;23.15;16.10;;;;;;;6.83;63.92;101529.31;5048439;28;20040;-83
2023/04/06 08:42:55;;;;;;;26.02;16.38;;;;;;;6.91;64.26;101533.34;5043321;28;20037;-83
2023/04/06 08:45:21;;;;;;;27.25;16.25;;;;;;;6.96;63.49;101529.56;5053398;28;20086;-83
2023/04/06 08:47:51;;;;;;;22.10;16.05;;;;;;;7.00;63.52;101536.38;5047988;28;20002;-82
2023/04/06 08:50:16;;;;;;;24.92;16.63;;;;;;;7.09;64.35;101536.84;5045105;28;20032;-82
2023/04/06 08:52:45;;;;;;;22.42;15.57;;;;;;;7.14;64.28;101537.47;5039902;28;20049;-82
2023/04/06 08:55:11;;;;;;;24.33;16.45;;;;;;;7.23;64.32;101531.72;5041547;28;20108;-82
2023/04/06 08:57:36;;;;;;;23.63;16.27;;;;;;;7.31;63.86;101526.00;5039242;28;20486;-83
2023/04/06 09:00:02;;;;;;;23.83;15.55;;;;;;;7.37;64.15;101529.19;5034112;28;20048;-82
2023/04/06 09:02:27;;;;;;;24.35;16.40;;;;;;;7.44;64.34;101529.72;5030888;28;20390;-83
2023/04/06 09:04:54;;;;;;;22.27;16.00;;;;;;;7.51;64.18;101531.13;5032690;28;20091;-83
2023/04/06 09:07:19;;;;;;;24.02;17.38;;;;;;;7.56;64.32;101537.03;5023752;28;20044;-83
2023/04/06 09:09:47;;;;;;;24.02;16.95;;;;;;;7.62;64.87;101529.72;5033623;28;20085;-83
2023/04/06 09:12:30;;;;;;;26.27;16.67;;;;;;;7.69;65.36;101537.22;5042124;28;20387;-83
2023/04/06 09:14:57;;;;;;;22.40;16.42;;;;;;;7.75;66.42;101538.69;5041374;28;20040;-83
2023/04/06 09:17:28;;;;;;;25.13;16.92;;;;;;;7.82;66.34;101544.50;5041534;28;20021;-83
2023/04/06 09:19:55;;;;;;;25.10;16.73;;;;;;;7.87;67.79;101539.81;5042488;28;20026;-83
2023/04/06 09:22:21;;;;;;;21.05;16.52;;;;;;;7.91;67.93;101542.22;5022443;28;20669;-83
2023/04/06 09:24:48;;;;;;;23.67;17.58;;;;;;;7.98;68.60;101540.09;5039145;28;20037;-83
2023/04/06 09:27:14;;;;;;;22.20;16.00;;;;;;;7.97;66.88;101539.22;5041321;28;20037;-83
2023/04/06 09:29:41;;;;;;;22.30;15.85;;;;;;;8.01;67.89;101541.69;5042013;28;20060;-83
2023/04/06 09:32:07;;;;;;;26.42;17.17;;;;;;;8.07;68.56;101536.09;5030144;28;20049;-83
2023/04/06 09:34:34;;;;;;;22.13;16.30;;;;;;;8.13;68.82;101531.31;5041607;28;20056;-83
2023/04/06 09:36:59;;;;;;;26.60;16.08;;;;;;;8.18;68.38;101530.19;5041490;28;20029;-83
2023/04/06 09:39:25;;;;;;;22.60;16.00;;;;;;;8.24;68.95;101528.06;5054558;28;20037;-83
2023/04/06 09:41:52;;;;;;;20.65;15.10;;;;;;;8.28;68.03;101526.97;5057476;28;20053;-83
2023/04/06 09:44:17;;;;;;;20.75;14.93;;;;;;;8.32;68.51;101530.28;5046065;28;20053;-82
2023/04/06 09:46:44;;;;;;;22.58;15.07;;;;;;;8.33;68.68;101534.66;5035154;28;20053;-81
2023/04/06 09:49:11;;;;;;;19.45;12.65;;;;;;;8.31;68.37;101532.09;5044408;28;20009;-82
2023/04/06 09:51:43;;;;;;;19.88;13.18;;;;;;;8.30;69.36;101533.00;5034965;28;20032;-82
2023/04/06 09:54:11;;;;;;;18.70;12.50;;;;;;;8.30;69.78;101534.81;5016192;28;20033;-82
2023/04/06 09:56:45;;;;;;;17.42;11.90;;;;;;;8.31;71.84;101533.84;5034613;28;20037;-82
2023/04/06 09:59:14;;;;;;;18.38;12.20;;;;;;;8.31;73.01;101525.91;5033110;28;20409;-82
2023/04/06 10:01:40;;;;;;;20.75;12.43;;;;;;;8.32;73.91;101532.94;5032691;28;20475;-82
2023/04/06 10:04:26;;;;;;;18.83;12.40;;;;;;;8.33;72.96;101532.84;5037635;28;20037;-82
2023/04/06 10:06:52;;;;;;;17.08;12.35;;;;;;;8.32;74.68;101530.28;5033676;28;20049;-81
2023/04/06 10:09:24;;;;;;;18.02;12.15;;;;;;;8.26;76.07;101528.84;5034853;28;20130;-81
2023/04/06 10:11:50;;;;;;;19.48;12.73;;;;;;;8.26;77.50;101530.63;5033116;28;20034;-82
2023/04/06 10:14:15;;;;;;;15.35;11.57;;;;;;;8.27;77.84;101530.53;5040410;28;20055;-82
2023/04/06 10:16:42;;;;;;;15.93;12.00;;;;;;;8.27;78.21;101533.19;5039636;28;20061;-82
2023/04/06 10:19:16;;;;;;;16.27;11.73;;;;;;;8.25;78.36;101532.41;5038264;28;20025;-82
2023/04/06 10:21:48;;;;;;;18.75;12.00;;;;;;;8.21;79.31;101535.31;5035399;28;20041;-82
2023/04/06 10:24:13;;;;;;;18.98;12.10;;;;;;;8.20;80.00;101537.13;5041574;28;20030;-83
2023/04/06 10:26:39;;;;;;;16.48;12.88;;;;;;;8.20;81.17;101537.13;5041429;28;20063;-83
2023/04/06 10:29:06;;;;;;;15.35;11.48;;;;;;;8.18;81.04;101532.84;5042840;28;20085;-83
2023/04/06 10:31:31;;;;;;;18.63;12.27;;;;;;;8.17;82.54;101532.00;5029389;28;20041;-83
2023/04/06 10:33:59;;;;;;;16.23;11.63;;;;;;;8.18;83.58;101539.00;5035718;28;20022;-83
2023/04/06 10:36:27;;;;;;;18.50;11.93;;;;;;;8.18;82.82;101538.13;5030094;28;20476;-83
2023/04/06 10:39:00;;;;;;;18.05;11.57;;;;;;;8.13;82.84;101536.59;5033704;28;20046;-83
2023/04/06 10:41:40;;;;;;;15.75;11.20;;;;;;;8.10;84.00;101536.75;5041860;28;20049;-83
2023/04/06 10:44:06;;;;;;;15.23;10.48;;;;;;;8.06;84.08;101529.94;5040050;28;20025;-83
2023/04/06 10:46:34;;;;;;;15.00;11.15;;;;;;;8.05;85.99;101524.75;5032810;28;20037;-83
2023/04/06 10:49:12;;;;;;;12.48;9.32;;;;;;;8.06;84.77;101529.94;5043420;28;20037;-83
2023/04/06 10:51:38;;;;;;;15.43;9.98;;;;;;;8.01;85.30;101526.72;5029906;28;20036;-83
2023/04/06 10:54:05;;;;;;;14.00;9.98;;;;;;;7.99;86.33;101525.06;5033112;28;20022;-83
2023/04/06 10:56:34;;;;;;;14.73;9.68;;;;;;;7.97;87.50;101527.78;5032728;28;20042;-83
2023/04/06 10:58:59;;;;;;;16.02;9.13;;;;;;;8.01;87.13;101523.19;5035328;28;20044;-83
2023/04/06 11:01:27;;;;;;;12.88;9.25;;;;;;;8.03;88.57;101511.59;5034681;28;20045;-83
2023/04/06 11:03:55;;;;;;;14.63;9.18;;;;;;;8.05;89.42;101517.66;5039553;28;20021;-83
2023/04/06 11:06:22;;;;;;;14.88;9.73;;;;;;;8.05;88.58;101517.66;5042576;28;20045;-83
2023/04/06 11:08:48;;;;;;;12.93;9.27;;;;;;;8.08;88.19;101516.63;5042494;28;20048;-83
2023/04/06 11:11:17;;;;;;;12.73;9.82;;;;;;;8.12;90.79;101518.16;5042104;28;20049;-83